Time;durP1;ratioP1;P1;durP2;ratioP2;P2;SDS_P1;SDS_P2;PMS_P1;PMS_P2;Temp;Humidity;BMP_temperature;BMP_pressure;BME280_temperature;BME280_humidity;BME280_pressure;Samples;Min_cycle;Max_cycle;Signal;HPM_P1;HPM_P2
2023/07/05 00:00:46;;;;;;;3.00;2.80;;;;;;;;;;6190354;23;20269;-85
2023/07/05 00:03:15;;;;;;;4.32;3.88;;;;;;;;;;6189690;23;20253;-84
2023/07/05 00:05:42;;;;;;;3.67;3.30;;;;;;;;;;6190883;23;20206;-85
2023/07/05 00:08:10;;;;;;;3.35;3.05;;;;;;;;;;6190469;23;20209;-84
2023/07/05 00:10:38;;;;;;;4.22;3.92;;;;;;;;;;6192582;23;20198;-85
2023/07/05 00:13:05;;;;;;;2.90;2.70;;;;;;;;;;6192839;23;20249;-84
2023/07/05 00:15:33;;;;;;;2.90;2.70;;;;;;;;;;6192178;23;20178;-84
2023/07/05 00:18:01;;;;;;;3.22;2.83;;;;;;;;;;6193482;23;20177;-85
2023/07/05 00:20:29;;;;;;;3.67;3.38;;;;;;;;;;6191521;23;20202;-85
2023/07/05 00:22:57;;;;;;;3.20;2.90;;;;;;;;;;6191915;23;20229;-83
2023/07/05 00:25:25;;;;;;;2.92;2.60;;;;;;;;;;6192847;23;20214;-84
2023/07/05 00:27:52;;;;;;;3.13;2.88;;;;;;;;;;6192175;23;20202;-84
2023/07/05 00:30:20;;;;;;;3.65;3.35;;;;;;;;;;6191347;23;20199;-85
2023/07/05 00:32:47;;;;;;;4.10;3.33;;;;;;;;;;6190965;23;20253;-85
2023/07/05 00:35:15;;;;;;;2.95;2.67;;;;;;;;;;6191023;23;20198;-85
2023/07/05 00:37:44;;;;;;;5.00;3.95;;;;;;;;;;6191077;23;20234;-85
2023/07/05 00:40:12;;;;;;;4.35;3.90;;;;;;;;;;6191567;23;20669;-85
2023/07/05 00:42:39;;;;;;;4.40;4.00;;;;;;;;;;6192420;23;20591;-85
2023/07/05 00:45:50;;;;;;;5.00;4.15;;;;;;;;;;6191629;23;20178;-84
2023/07/05 00:48:19;;;;;;;4.53;4.10;;;;;;;;;;6191438;23;20172;-85
2023/07/05 00:50:51;;;;;;;5.68;4.97;;;;;;;;;;6191319;23;20533;-85
2023/07/05 00:53:20;;;;;;;4.68;4.18;;;;;;;;;;6191387;23;20230;-86
2023/07/05 00:55:51;;;;;;;4.80;4.40;;;;;;;;;;6191295;23;20182;-85
2023/07/05 00:58:19;;;;;;;5.15;4.65;;;;;;;;;;6192515;23;20562;-86
2023/07/05 01:00:47;;;;;;;6.07;4.88;;;;;;;;;;6191983;23;20593;-85
2023/07/05 01:03:20;;;;;;;4.55;4.15;;;;;;;;;;6191154;23;20194;-85
2023/07/05 01:05:50;;;;;;;5.10;4.60;;;;;;;;;;6192830;23;20194;-85
2023/07/05 01:08:19;;;;;;;5.30;4.82;;;;;;;;;;6191819;23;20173;-85
2023/07/05 01:10:52;;;;;;;4.75;4.32;;;;;;;;;;6192847;23;20277;-83
2023/07/05 01:13:26;;;;;;;6.88;4.40;;;;;;;;;;6192917;23;20242;-86
2023/07/05 01:16:06;;;;;;;6.80;4.97;;;;;;;;;;6193273;23;20241;-84
2023/07/05 01:18:37;;;;;;;6.05;5.38;;;;;;;;;;6192805;23;20170;-84
2023/07/05 01:21:12;;;;;;;5.32;4.82;;;;;;;;;;6192182;23;20193;-86
2023/07/05 01:24:26;;;;;;;4.88;4.47;;;;;;;;;;6192452;23;20245;-84
2023/07/05 01:27:23;;;;;;;4.43;4.03;;;;;;;;;;6191750;23;20163;-86
2023/07/05 01:30:24;;;;;;;3.92;3.63;;;;;;;;;;6192055;23;20233;-85
2023/07/05 01:32:55;;;;;;;4.70;3.70;;;;;;;;;;6191678;23;20174;-85
2023/07/05 01:35:26;;;;;;;4.35;3.88;;;;;;;;;;6192149;23;20630;-84
2023/07/05 01:37:55;;;;;;;4.38;3.97;;;;;;;;;;6192162;23;20194;-85
2023/07/05 01:40:52;;;;;;;4.68;3.95;;;;;;;;;;6191392;23;20254;-84
2023/07/05 01:43:20;;;;;;;4.28;3.53;;;;;;;;;;6191192;23;20286;-84
2023/07/05 01:46:03;;;;;;;3.38;3.05;;;;;;;;;;6192830;23;20216;-84
2023/07/05 01:48:39;;;;;;;4.85;4.15;;;;;;;;;;6194143;23;20194;-84
2023/07/05 01:51:12;;;;;;;6.28;4.50;;;;;;;;;;6193621;23;20269;-83
2023/07/05 01:53:51;;;;;;;4.55;4.15;;;;;;;;;;6193179;23;20217;-84
2023/07/05 01:56:21;;;;;;;4.80;4.22;;;;;;;;;;6193763;23;20200;-84
2023/07/05 01:58:52;;;;;;;5.32;4.28;;;;;;;;;;6192669;23;20178;-84
2023/07/05 02:01:19;;;;;;;4.22;3.70;;;;;;;;;;6192257;23;20225;-85
2023/07/05 02:03:50;;;;;;;3.90;3.50;;;;;;;;;;6193052;23;20202;-84
2023/07/05 02:06:18;;;;;;;3.72;3.42;;;;;;;;;;6193934;23;20150;-85
2023/07/05 02:08:51;;;;;;;5.05;4.28;;;;;;;;;;6193226;23;20198;-85
2023/07/05 02:11:19;;;;;;;4.00;3.60;;;;;;;;;;6193266;23;20178;-84
2023/07/05 02:13:47;;;;;;;4.68;4.28;;;;;;;;;;6193046;23;20198;-84
2023/07/05 02:16:14;;;;;;;4.55;4.07;;;;;;;;;;6192521;23;20645;-85
2023/07/05 02:18:42;;;;;;;5.10;4.20;;;;;;;;;;6191391;23;20209;-86
2023/07/05 02:21:12;;;;;;;5.00;4.32;;;;;;;;;;6192244;23;20229;-85
2023/07/05 02:23:39;;;;;;;4.22;3.50;;;;;;;;;;6191973;23;20625;-85
2023/07/05 02:26:08;;;;;;;4.18;3.85;;;;;;;;;;6192023;23;20253;-85
2023/07/05 02:28:36;;;;;;;4.90;4.40;;;;;;;;;;6192904;23;20227;-85
2023/07/05 02:31:11;;;;;;;4.55;4.15;;;;;;;;;;6192255;23;20238;-85
2023/07/05 02:33:39;;;;;;;3.70;3.40;;;;;;;;;;6192426;23;20158;-84
2023/07/05 02:36:14;;;;;;;5.97;4.30;;;;;;;;;;6192351;23;20178;-85
2023/07/05 02:38:42;;;;;;;5.05;3.95;;;;;;;;;;6192697;23;20233;-84
2023/07/05 02:41:09;;;;;;;4.20;3.80;;;;;;;;;;6191948;23;20261;-83
2023/07/05 02:43:37;;;;;;;3.78;3.47;;;;;;;;;;6192276;23;20276;-83
2023/07/05 02:46:06;;;;;;;4.78;3.85;;;;;;;;;;6192263;23;20500;-84
2023/07/05 02:48:33;;;;;;;5.47;3.53;;;;;;;;;;6192978;23;20181;-84
2023/07/05 02:51:01;;;;;;;4.43;3.38;;;;;;;;;;6193148;23;20258;-83
2023/07/05 02:53:30;;;;;;;3.67;3.38;;;;;;;;;;6193723;23;20546;-83
2023/07/05 02:55:57;;;;;;;5.65;3.80;;;;;;;;;;6193562;23;20213;-84
2023/07/05 02:58:25;;;;;;;5.18;4.35;;;;;;;;;;6192654;23;20507;-84
2023/07/05 03:00:52;;;;;;;4.20;3.80;;;;;;;;;;6192847;23;20249;-84
2023/07/05 03:03:21;;;;;;;3.90;3.28;;;;;;;;;;6192723;23;20201;-84
2023/07/05 03:05:56;;;;;;;4.85;3.83;;;;;;;;;;6192665;23;20181;-84
2023/07/05 03:08:25;;;;;;;3.53;3.05;;;;;;;;;;6191473;23;20205;-85
2023/07/05 03:10:55;;;;;;;3.60;3.30;;;;;;;;;;6191874;23;20226;-82
2023/07/05 03:13:23;;;;;;;3.47;3.15;;;;;;;;;;6189931;23;20171;-85
2023/07/05 03:15:50;;;;;;;3.63;3.28;;;;;;;;;;6193543;23;20230;-81
2023/07/05 03:18:18;;;;;;;7.80;3.38;;;;;;;;;;6189975;23;20213;-84
2023/07/05 03:20:46;;;;;;;3.90;3.38;;;;;;;;;;6191046;23;20278;-86
2023/07/05 03:23:14;;;;;;;3.20;2.90;;;;;;;;;;6191709;23;20247;-86
2023/07/05 03:25:42;;;;;;;3.45;3.15;;;;;;;;;;6193166;23;20202;-85
2023/07/05 03:28:11;;;;;;;3.47;3.00;;;;;;;;;;6192191;23;20178;-84
2023/07/05 03:30:38;;;;;;;3.85;3.40;;;;;;;;;;6192425;23;20205;-85
2023/07/05 03:33:06;;;;;;;3.63;3.20;;;;;;;;;;6190671;23;20543;-83
2023/07/05 03:35:33;;;;;;;3.83;3.47;;;;;;;;;;6192532;23;20244;-83
2023/07/05 03:38:00;;;;;;;4.35;3.50;;;;;;;;;;6191807;23;20262;-84
2023/07/05 03:40:28;;;;;;;4.13;3.47;;;;;;;;;;6192130;23;20277;-85
2023/07/05 03:42:55;;;;;;;4.07;3.33;;;;;;;;;;6190958;23;20185;-84
2023/07/05 03:45:24;;;;;;;3.53;3.17;;;;;;;;;;6191979;23;20205;-83
2023/07/05 03:47:52;;;;;;;2.92;2.63;;;;;;;;;;6190870;23;20253;-85
2023/07/05 03:50:19;;;;;;;3.13;2.42;;;;;;;;;;6192250;23;20234;-85
2023/07/05 03:52:46;;;;;;;2.97;2.78;;;;;;;;;;6192372;23;20261;-82
2023/07/05 03:55:14;;;;;;;2.80;2.60;;;;;;;;;;6191315;23;20257;-85
2023/07/05 03:57:41;;;;;;;2.92;2.63;;;;;;;;;;6192324;23;20252;-85
2023/07/05 04:00:11;;;;;;;3.97;2.63;;;;;;;;;;6191891;23;20213;-83
2023/07/05 04:02:39;;;;;;;4.60;2.53;;;;;;;;;;6191388;23;20233;-84
2023/07/05 04:05:07;;;;;;;2.88;2.50;;;;;;;;;;6191611;23;20689;-84
2023/07/05 04:07:35;;;;;;;2.30;1.92;;;;;;;;;;6191742;23;20203;-82
2023/07/05 04:10:03;;;;;;;2.53;2.33;;;;;;;;;;6191161;23;20230;-82
2023/07/05 04:12:31;;;;;;;2.60;2.40;;;;;;;;;;6192011;23;20511;-85
2023/07/05 04:14:58;;;;;;;2.80;2.60;;;;;;;;;;6193373;23;20514;-85
2023/07/05 04:17:26;;;;;;;2.55;2.35;;;;;;;;;;6192639;23;20234;-85
2023/07/05 04:19:54;;;;;;;2.65;2.45;;;;;;;;;;6191976;23;20245;-83
2023/07/05 04:22:22;;;;;;;3.47;2.63;;;;;;;;;;6192109;23;20697;-85
2023/07/05 04:24:49;;;;;;;2.72;2.22;;;;;;;;;;6193751;23;20237;-84
2023/07/05 04:27:17;;;;;;;1.88;1.77;;;;;;;;;;6192984;23;20185;-84
2023/07/05 04:29:45;;;;;;;2.60;2.40;;;;;;;;;;6193566;23;20508;-85
2023/07/05 04:32:12;;;;;;;2.63;2.42;;;;;;;;;;6192093;23;20214;-85
2023/07/05 04:34:40;;;;;;;4.22;2.42;;;;;;;;;;6193002;23;20261;-83
2023/07/05 04:37:09;;;;;;;2.78;2.28;;;;;;;;;;6192199;23;20687;-85
2023/07/05 04:39:37;;;;;;;3.30;2.47;;;;;;;;;;6192422;23;20634;-85
2023/07/05 04:42:05;;;;;;;3.17;2.33;;;;;;;;;;6192367;23;20225;-83
2023/07/05 04:44:33;;;;;;;2.05;1.80;;;;;;;;;;6192617;23;20206;-83
2023/07/05 04:47:00;;;;;;;2.92;2.50;;;;;;;;;;6192482;23;20178;-84
2023/07/05 04:49:27;;;;;;;2.38;1.98;;;;;;;;;;6192195;23;20668;-82
2023/07/05 04:51:55;;;;;;;1.95;1.80;;;;;;;;;;6192711;23;20178;-84
2023/07/05 04:54:24;;;;;;;1.85;1.65;;;;;;;;;;6192432;23;20175;-84
2023/07/05 04:56:51;;;;;;;1.92;1.80;;;;;;;;;;6192869;23;20210;-84
2023/07/05 04:59:19;;;;;;;1.60;1.50;;;;;;;;;;6191926;23;20217;-82
2023/07/05 05:01:47;;;;;;;1.60;1.50;;;;;;;;;;6191228;23;20175;-84
2023/07/05 05:04:15;;;;;;;1.52;1.42;;;;;;;;;;6193019;23;20257;-84
2023/07/05 05:06:43;;;;;;;1.60;1.50;;;;;;;;;;6193552;23;20198;-83
2023/07/05 05:09:10;;;;;;;1.77;1.50;;;;;;;;;;6194650;23;20175;-83
2023/07/05 05:11:39;;;;;;;1.58;1.40;;;;;;;;;;6192651;23;20199;-82
2023/07/05 05:14:06;;;;;;;1.40;1.30;;;;;;;;;;6192122;23;20561;-82
2023/07/05 05:16:34;;;;;;;1.30;1.20;;;;;;;;;;6190616;23;20256;-84
2023/07/05 05:19:01;;;;;;;1.50;1.40;;;;;;;;;;6193143;23;20204;-84
2023/07/05 05:21:29;;;;;;;1.20;1.10;;;;;;;;;;6194187;23;20253;-84
2023/07/05 05:23:56;;;;;;;1.23;1.13;;;;;;;;;;6195110;23;20178;-84
2023/07/05 05:26:24;;;;;;;1.38;1.27;;;;;;;;;;6195275;23;20185;-84
2023/07/05 05:28:53;;;;;;;1.15;1.15;;;;;;;;;;6194811;23;20260;-83
2023/07/05 05:31:20;;;;;;;1.20;1.20;;;;;;;;;;6196252;23;20198;-82
2023/07/05 05:33:48;;;;;;;1.55;1.40;;;;;;;;;;6195936;23;20178;-84
2023/07/05 05:36:16;;;;;;;1.30;1.20;;;;;;;;;;6195334;23;20554;-82
2023/07/05 05:38:43;;;;;;;1.55;1.45;;;;;;;;;;6195140;23;20178;-85
2023/07/05 05:41:11;;;;;;;2.75;1.10;;;;;;;;;;6192305;23;20657;-85
2023/07/05 05:43:39;;;;;;;1.42;1.33;;;;;;;;;;6192164;23;20222;-85
2023/07/05 05:46:08;;;;;;;1.50;1.20;;;;;;;;;;6190373;23;20249;-86
2023/07/05 05:48:36;;;;;;;2.13;1.40;;;;;;;;;;6189463;23;20182;-86
2023/07/05 05:51:03;;;;;;;1.40;1.30;;;;;;;;;;6188367;23;20202;-88
2023/07/05 05:53:31;;;;;;;1.60;1.50;;;;;;;;;;6188425;23;20175;-88
2023/07/05 05:55:59;;;;;;;1.20;1.10;;;;;;;;;;6188717;23;20221;-90
2023/07/05 05:58:26;;;;;;;1.42;1.10;;;;;;;;;;6187510;23;20202;-88
2023/07/05 06:00:54;;;;;;;1.00;1.00;;;;;;;;;;6189237;23;20587;-87
2023/07/05 06:03:23;;;;;;;0.80;0.80;;;;;;;;;;6192546;23;20193;-87
2023/07/05 06:05:51;;;;;;;1.15;0.88;;;;;;;;;;6190297;23;20190;-86
2023/07/05 06:08:19;;;;;;;1.00;0.90;;;;;;;;;;6190886;23;20226;-86
2023/07/05 06:10:47;;;;;;;1.25;1.00;;;;;;;;;;6190845;23;20252;-86
2023/07/05 06:13:15;;;;;;;1.25;1.15;;;;;;;;;;6189854;23;20261;-88
2023/07/05 06:15:43;;;;;;;1.10;1.00;;;;;;;;;;6190202;23;20177;-86
2023/07/05 06:18:10;;;;;;;1.40;1.13;;;;;;;;;;6193311;23;20175;-87
2023/07/05 06:20:40;;;;;;;1.30;1.20;;;;;;;;;;6193109;23;20222;-86
2023/07/05 06:23:07;;;;;;;1.30;1.20;;;;;;;;;;6192941;23;20178;-87
2023/07/05 06:25:35;;;;;;;1.58;1.48;;;;;;;;;;6194525;23;20198;-86
2023/07/05 06:28:03;;;;;;;1.42;1.25;;;;;;;;;;6193478;23;20573;-85
2023/07/05 06:30:30;;;;;;;1.30;1.20;;;;;;;;;;6190782;23;20205;-84
2023/07/05 06:32:57;;;;;;;1.98;1.52;;;;;;;;;;6190711;23;20261;-86
2023/07/05 06:35:25;;;;;;;1.55;1.45;;;;;;;;;;6190876;23;20213;-84
2023/07/05 06:37:54;;;;;;;1.50;1.40;;;;;;;;;;6189414;23;20178;-86
2023/07/05 06:40:21;;;;;;;1.42;1.33;;;;;;;;;;6192173;23;20206;-86
2023/07/05 06:42:49;;;;;;;2.88;1.40;;;;;;;;;;6191224;23;20178;-86
2023/07/05 06:45:17;;;;;;;1.40;1.30;;;;;;;;;;6191151;23;20229;-86
2023/07/05 06:47:45;;;;;;;2.17;1.98;;;;;;;;;;6192344;23;20213;-85
2023/07/05 06:50:14;;;;;;;2.50;1.90;;;;;;;;;;6193579;23;20230;-85
2023/07/05 06:52:41;;;;;;;1.52;1.40;;;;;;;;;;6192566;23;20218;-87
2023/07/05 06:55:12;;;;;;;2.05;1.85;;;;;;;;;;6189908;23;20297;-86
2023/07/05 06:57:40;;;;;;;1.85;1.75;;;;;;;;;;6191105;23;20249;-85
2023/07/05 07:00:10;;;;;;;2.63;2.22;;;;;;;;;;6191833;23;20194;-86
2023/07/05 07:02:37;;;;;;;2.70;2.33;;;;;;;;;;6192607;23;20508;-87
2023/07/05 07:05:06;;;;;;;1.85;1.70;;;;;;;;;;6193086;23;20253;-88
2023/07/05 07:07:33;;;;;;;2.58;2.33;;;;;;;;;;6191309;23;20209;-86
2023/07/05 07:10:03;;;;;;;2.08;1.88;;;;;;;;;;6193183;23;20206;-86
2023/07/05 07:12:32;;;;;;;3.47;3.17;;;;;;;;;;6193794;23;20625;-87
2023/07/05 07:15:00;;;;;;;2.60;2.15;;;;;;;;;;6193363;23;20693;-86
2023/07/05 07:17:27;;;;;;;2.63;2.35;;;;;;;;;;6192480;23;20225;-86
2023/07/05 07:19:54;;;;;;;2.35;2.15;;;;;;;;;;6193088;23;20254;-86
2023/07/05 07:22:23;;;;;;;2.38;1.80;;;;;;;;;;6193278;23;20229;-87
2023/07/05 07:24:51;;;;;;;1.70;1.60;;;;;;;;;;6193445;23;20213;-88
2023/07/05 07:27:19;;;;;;;2.60;2.40;;;;;;;;;;6191836;23;20178;-86
2023/07/05 07:29:48;;;;;;;2.78;2.35;;;;;;;;;;6192096;23;20253;-86
2023/07/05 07:32:15;;;;;;;2.50;2.30;;;;;;;;;;6193519;23;20178;-86
2023/07/05 07:34:43;;;;;;;2.13;1.92;;;;;;;;;;6189849;23;20573;-87
2023/07/05 07:37:10;;;;;;;4.55;2.20;;;;;;;;;;6189034;23;20174;-85
2023/07/05 07:39:38;;;;;;;2.65;2.45;;;;;;;;;;6186680;23;20241;-86
2023/07/05 07:42:06;;;;;;;2.70;2.50;;;;;;;;;;6188275;23;20179;-86
2023/07/05 07:44:34;;;;;;;2.65;2.45;;;;;;;;;;6187060;23;20262;-86
2023/07/05 07:47:04;;;;;;;2.50;2.25;;;;;;;;;;6190231;23;20258;-86
2023/07/05 07:49:31;;;;;;;3.08;2.78;;;;;;;;;;6188997;23;20198;-87
2023/07/05 07:51:59;;;;;;;2.53;2.30;;;;;;;;;;6187804;23;20537;-87
2023/07/05 07:54:29;;;;;;;3.03;2.78;;;;;;;;;;6187015;23;20952;-86
2023/07/05 07:56:57;;;;;;;2.00;1.85;;;;;;;;;;6188426;23;20163;-86
2023/07/05 07:59:25;;;;;;;2.40;2.20;;;;;;;;;;6189521;23;20174;-87
2023/07/05 08:01:53;;;;;;;3.45;2.30;;;;;;;;;;6188645;23;20253;-87
2023/07/05 08:04:22;;;;;;;2.60;2.40;;;;;;;;;;6187813;23;20213;-86
2023/07/05 08:06:51;;;;;;;3.33;2.58;;;;;;;;;;6187295;23;20273;-86
2023/07/05 08:09:22;;;;;;;2.10;1.90;;;;;;;;;;6187350;23;20249;-86
2023/07/05 08:11:49;;;;;;;2.42;2.00;;;;;;;;;;6187152;23;20159;-86
2023/07/05 08:14:18;;;;;;;2.75;2.20;;;;;;;;;;6187466;23;20202;-86
2023/07/05 08:16:46;;;;;;;1.80;1.70;;;;;;;;;;6187629;23;20688;-86
2023/07/05 08:19:14;;;;;;;3.65;2.70;;;;;;;;;;6187290;23;20175;-86
2023/07/05 08:21:45;;;;;;;2.03;1.67;;;;;;;;;;6187504;23;20194;-86
2023/07/05 08:24:12;;;;;;;2.83;2.53;;;;;;;;;;6186479;23;20181;-85
2023/07/05 08:26:40;;;;;;;2.65;2.45;;;;;;;;;;6187419;23;20606;-86
2023/07/05 08:29:08;;;;;;;2.05;1.95;;;;;;;;;;6187359;23;20175;-86
2023/07/05 08:31:35;;;;;;;2.53;2.33;;;;;;;;;;6187625;23;20258;-88
2023/07/05 08:34:03;;;;;;;3.80;2.53;;;;;;;;;;6186233;23;20716;-87
2023/07/05 08:36:36;;;;;;;2.25;2.05;;;;;;;;;;6186371;23;20202;-87
2023/07/05 08:39:06;;;;;;;2.40;2.20;;;;;;;;;;6186388;23;20165;-86
2023/07/05 08:41:57;;;;;;;2.70;2.50;;;;;;;;;;6186744;23;20198;-87
2023/07/05 08:44:36;;;;;;;2.20;2.10;;;;;;;;;;6187622;23;20159;-87
2023/07/05 08:47:14;;;;;;;1.92;1.83;;;;;;;;;;6187640;23;20186;-87
2023/07/05 08:49:47;;;;;;;2.30;2.10;;;;;;;;;;6186688;23;20186;-84
2023/07/05 08:52:24;;;;;;;3.47;3.17;;;;;;;;;;6189428;23;20234;-84
2023/07/05 08:54:57;;;;;;;2.22;2.03;;;;;;;;;;6187964;23;20288;-83
2023/07/05 08:57:28;;;;;;;5.13;2.90;;;;;;;;;;6188419;23;20641;-85
2023/07/05 09:00:00;;;;;;;2.00;1.80;;;;;;;;;;6188584;23;20194;-84
2023/07/05 09:02:28;;;;;;;2.17;1.83;;;;;;;;;;6189220;23;20166;-84
2023/07/05 09:04:58;;;;;;;2.10;1.80;;;;;;;;;;6187307;23;20261;-83
2023/07/05 09:07:37;;;;;;;1.90;1.80;;;;;;;;;;6187430;23;20680;-85
2023/07/05 09:10:14;;;;;;;2.75;2.08;;;;;;;;;;6188075;23;20200;-83
2023/07/05 09:12:52;;;;;;;2.30;1.42;;;;;;;;;;6192533;23;20162;-87
2023/07/05 09:15:23;;;;;;;1.85;1.70;;;;;;;;;;6193369;23;20162;-85
2023/07/05 09:17:53;;;;;;;1.63;1.30;;;;;;;;;;6192015;23;20155;-86
2023/07/05 09:20:50;;;;;;;1.67;1.55;;;;;;;;;;6190632;23;20253;-84
2023/07/05 09:23:23;;;;;;;1.67;1.30;;;;;;;;;;6191917;23;20185;-85
2023/07/05 09:25:55;;;;;;;3.50;1.30;;;;;;;;;;6192911;23;20190;-86
2023/07/05 09:28:26;;;;;;;1.15;1.08;;;;;;;;;;6188942;23;20257;-86
2023/07/05 09:30:54;;;;;;;1.42;1.33;;;;;;;;;;6190353;23;20198;-87
2023/07/05 09:33:25;;;;;;;1.27;1.17;;;;;;;;;;6191140;23;20198;-86
2023/07/05 09:35:53;;;;;;;2.28;2.08;;;;;;;;;;6193408;23;20239;-86
2023/07/05 09:38:26;;;;;;;1.00;1.00;;;;;;;;;;6194801;23;20229;-86
2023/07/05 09:41:04;;;;;;;1.88;1.17;;;;;;;;;;6193748;23;20223;-84
2023/07/05 09:43:33;;;;;;;1.48;1.38;;;;;;;;;;6195660;23;20159;-86
2023/07/05 09:46:01;;;;;;;0.90;0.90;;;;;;;;;;6195123;23;20257;-86
2023/07/05 09:48:31;;;;;;;0.95;0.95;;;;;;;;;;6193933;23;20226;-87
2023/07/05 09:51:03;;;;;;;1.00;1.00;;;;;;;;;;6195405;23;20203;-85
2023/07/05 09:53:41;;;;;;;0.85;0.85;;;;;;;;;;6194248;23;20170;-87
2023/07/05 09:56:14;;;;;;;1.48;1.25;;;;;;;;;;6195056;23;20217;-86
2023/07/05 09:58:44;;;;;;;1.38;1.27;;;;;;;;;;6194731;23;20159;-87
2023/07/05 10:01:25;;;;;;;1.10;1.00;;;;;;;;;;6195946;23;20277;-86
2023/07/05 10:03:57;;;;;;;1.85;1.23;;;;;;;;;;6195344;23;20163;-87
2023/07/05 10:06:27;;;;;;;1.40;1.30;;;;;;;;;;6195167;23;20669;-86
2023/07/05 10:08:56;;;;;;;1.15;1.10;;;;;;;;;;6196852;23;20202;-85
2023/07/05 10:11:28;;;;;;;1.42;1.33;;;;;;;;;;6196059;23;20221;-86
2023/07/05 10:14:04;;;;;;;1.73;1.63;;;;;;;;;;6196448;23;20223;-85
2023/07/05 10:16:48;;;;;;;1.40;1.30;;;;;;;;;;6193761;23;20253;-86
2023/07/05 10:19:40;;;;;;;1.35;1.25;;;;;;;;;;6196100;23;20225;-87
2023/07/05 10:22:13;;;;;;;1.30;1.20;;;;;;;;;;6191010;23;20204;-84
2023/07/05 10:24:44;;;;;;;1.00;1.00;;;;;;;;;;6196835;23;20182;-84
2023/07/05 10:27:25;;;;;;;1.40;1.30;;;;;;;;;;6195968;23;20186;-84
2023/07/05 10:30:00;;;;;;;3.55;1.40;;;;;;;;;;6196355;23;20222;-87
2023/07/05 10:32:29;;;;;;;1.40;1.30;;;;;;;;;;6198057;23;20154;-86
2023/07/05 10:34:57;;;;;;;1.13;1.10;;;;;;;;;;6199749;23;20167;-85
2023/07/05 10:37:31;;;;;;;1.98;1.77;;;;;;;;;;6197732;23;20170;-86
2023/07/05 10:39:58;;;;;;;1.60;1.40;;;;;;;;;;6197957;23;20198;-86
2023/07/05 10:42:27;;;;;;;1.73;1.20;;;;;;;;;;6197089;23;20262;-85
2023/07/05 10:44:55;;;;;;;1.25;1.15;;;;;;;;;;6198261;23;20193;-87
2023/07/05 10:47:23;;;;;;;2.35;1.30;;;;;;;;;;6199799;23;20205;-86
2023/07/05 10:49:53;;;;;;;1.25;1.20;;;;;;;;;;6198062;23;20214;-86
2023/07/05 10:52:22;;;;;;;1.00;1.00;;;;;;;;;;6199608;23;20209;-85
2023/07/05 10:55:00;;;;;;;1.20;1.10;;;;;;;;;;6199651;23;20222;-86
2023/07/05 10:57:33;;;;;;;1.10;1.00;;;;;;;;;;6200417;23;20155;-86
2023/07/05 11:00:11;;;;;;;1.00;1.00;;;;;;;;;;6198523;23;20202;-86
2023/07/05 11:02:43;;;;;;;1.30;1.20;;;;;;;;;;6198740;23;20170;-86
2023/07/05 11:05:24;;;;;;;1.00;0.90;;;;;;;;;;6198088;23;20382;-86
2023/07/05 11:07:53;;;;;;;1.08;1.02;;;;;;;;;;6199053;23;20508;-86
2023/07/05 11:10:21;;;;;;;1.48;1.10;;;;;;;;;;6198872;23;20198;-86
2023/07/05 11:12:50;;;;;;;1.40;1.30;;;;;;;;;;6198491;23;20175;-86
2023/07/05 11:15:21;;;;;;;0.93;0.93;;;;;;;;;;6198003;23;20171;-87
2023/07/05 11:17:49;;;;;;;1.40;1.30;;;;;;;;;;6198363;23;20206;-85
2023/07/05 11:20:47;;;;;;;1.42;1.33;;;;;;;;;;6195307;23;20225;-85
2023/07/05 11:23:55;;;;;;;1.02;1.00;;;;;;;;;;6196496;23;20175;-86
2023/07/05 11:26:42;;;;;;;1.38;1.27;;;;;;;;;;6197868;23;20185;-86
2023/07/05 11:29:48;;;;;;;1.40;1.10;;;;;;;;;;6198846;23;20174;-85
2023/07/05 11:32:16;;;;;;;0.77;0.77;;;;;;;;;;6196393;23;20174;-85
2023/07/05 11:34:48;;;;;;;1.23;1.13;;;;;;;;;;6198139;23;20178;-84
2023/07/05 11:37:52;;;;;;;0.95;0.95;;;;;;;;;;6197610;23;20186;-85
2023/07/05 11:41:04;;;;;;;1.48;0.98;;;;;;;;;;6196573;23;20197;-86
2023/07/05 11:43:40;;;;;;;1.08;0.98;;;;;;;;;;6188158;23;20209;-84
2023/07/05 11:46:44;;;;;;;1.00;0.90;;;;;;;;;;6190807;23;20170;-86
2023/07/05 11:49:39;;;;;;;0.93;0.93;;;;;;;;;;6191409;23;20178;-86
2023/07/05 11:52:18;;;;;;;1.20;1.00;;;;;;;;;;6191866;23;20159;-86
2023/07/05 11:54:59;;;;;;;1.15;1.08;;;;;;;;;;6190077;23;20524;-86
2023/07/05 11:57:29;;;;;;;1.27;1.23;;;;;;;;;;6193669;23;20238;-86
2023/07/05 12:00:09;;;;;;;1.10;1.00;;;;;;;;;;6189793;23;20673;-85
2023/07/05 12:02:49;;;;;;;1.75;1.60;;;;;;;;;;6190421;23;20209;-85
2023/07/05 12:05:20;;;;;;;0.88;0.88;;;;;;;;;;6194621;23;20572;-85
2023/07/05 12:07:51;;;;;;;0.90;0.90;;;;;;;;;;6191245;23;20550;-85
2023/07/05 12:10:23;;;;;;;1.10;1.05;;;;;;;;;;6191478;23;20265;-85
2023/07/05 12:12:51;;;;;;;1.10;1.00;;;;;;;;;;6192723;23;20237;-85
2023/07/05 12:15:19;;;;;;;1.48;1.30;;;;;;;;;;6195073;23;20178;-86
2023/07/05 12:17:49;;;;;;;1.05;0.90;;;;;;;;;;6192905;23;20209;-85
2023/07/05 12:20:33;;;;;;;1.00;1.00;;;;;;;;;;6191640;23;20190;-85
2023/07/05 12:23:01;;;;;;;0.98;0.95;;;;;;;;;;6191015;23;20227;-86
2023/07/05 12:25:29;;;;;;;1.02;1.02;;;;;;;;;;6190685;23;20191;-86
2023/07/05 12:27:57;;;;;;;0.90;0.90;;;;;;;;;;6192435;23;20185;-86
2023/07/05 12:30:25;;;;;;;0.82;0.82;;;;;;;;;;6190043;23;20198;-85
2023/07/05 12:32:56;;;;;;;2.13;1.10;;;;;;;;;;6190485;23;20172;-85
2023/07/05 12:35:26;;;;;;;2.50;0.93;;;;;;;;;;6190634;23;20163;-85
2023/07/05 12:37:56;;;;;;;1.45;0.85;;;;;;;;;;6190432;23;20266;-86
2023/07/05 12:40:29;;;;;;;1.13;1.13;;;;;;;;;;6188859;23;20194;-84
2023/07/05 12:43:00;;;;;;;1.23;1.00;;;;;;;;;;6190335;23;20165;-83
2023/07/05 12:45:30;;;;;;;2.17;1.00;;;;;;;;;;6191178;23;20155;-84
2023/07/05 12:48:12;;;;;;;1.05;1.02;;;;;;;;;;6191863;23;20253;-84
2023/07/05 12:50:41;;;;;;;1.00;1.00;;;;;;;;;;6188459;23;20222;-86
2023/07/05 12:53:16;;;;;;;1.05;1.05;;;;;;;;;;6189540;23;20618;-86
2023/07/05 12:55:54;;;;;;;2.05;1.17;;;;;;;;;;6188482;23;20209;-85
2023/07/05 12:58:23;;;;;;;1.13;1.02;;;;;;;;;;6189168;23;20468;-85
2023/07/05 13:00:53;;;;;;;1.05;1.05;;;;;;;;;;6188505;23;20281;-85
2023/07/05 13:03:23;;;;;;;0.90;0.90;;;;;;;;;;6189085;23;20174;-86
2023/07/05 13:05:51;;;;;;;1.40;1.30;;;;;;;;;;6188093;23;20549;-85
2023/07/05 13:08:18;;;;;;;1.38;0.85;;;;;;;;;;6189951;23;20182;-86
2023/07/05 13:10:46;;;;;;;1.10;0.93;;;;;;;;;;6187448;23;20232;-86
2023/07/05 13:13:34;;;;;;;1.13;1.02;;;;;;;;;;6189291;23;20559;-84
2023/07/05 13:16:24;;;;;;;1.70;1.27;;;;;;;;;;6189158;23;20186;-85
2023/07/05 13:19:00;;;;;;;1.05;0.95;;;;;;;;;;6190186;23;20502;-84
2023/07/05 13:21:38;;;;;;;2.20;1.20;;;;;;;;;;6189216;23;20198;-84
2023/07/05 13:24:15;;;;;;;1.45;1.35;;;;;;;;;;6190185;23;20190;-84
2023/07/05 13:26:42;;;;;;;1.50;1.40;;;;;;;;;;6189523;23;20166;-85
2023/07/05 13:29:24;;;;;;;1.10;1.00;;;;;;;;;;6190361;23;20275;-85
2023/07/05 13:31:56;;;;;;;1.23;1.08;;;;;;;;;;6190666;23;20194;-86
2023/07/05 13:34:26;;;;;;;1.30;1.10;;;;;;;;;;6189469;23;20182;-84
2023/07/05 13:36:59;;;;;;;1.38;1.10;;;;;;;;;;6191072;23;20182;-85
2023/07/05 13:39:27;;;;;;;1.67;1.45;;;;;;;;;;6192640;23;20159;-84
2023/07/05 13:41:58;;;;;;;0.90;0.90;;;;;;;;;;6192270;23;20205;-85
2023/07/05 13:44:26;;;;;;;1.40;1.30;;;;;;;;;;6194610;23;20163;-85
2023/07/05 13:46:53;;;;;;;1.23;1.10;;;;;;;;;;6195396;23;20194;-85
2023/07/05 13:49:21;;;;;;;1.60;1.50;;;;;;;;;;6194828;23;20595;-85
2023/07/05 13:52:00;;;;;;;1.77;1.00;;;;;;;;;;6192782;23;20502;-85
2023/07/05 13:54:29;;;;;;;1.63;1.52;;;;;;;;;;6193044;23;20266;-84
2023/07/05 13:56:57;;;;;;;3.42;1.70;;;;;;;;;;6191950;23;20238;-85
2023/07/05 13:59:24;;;;;;;1.83;1.48;;;;;;;;;;6187764;23;20177;-86
2023/07/05 14:01:52;;;;;;;2.13;1.60;;;;;;;;;;6190388;23;20242;-90
2023/07/05 14:04:20;;;;;;;1.70;1.52;;;;;;;;;;6188672;23;20175;-84
2023/07/05 14:06:49;;;;;;;2.78;1.55;;;;;;;;;;6188810;23;20198;-88
2023/07/05 14:09:17;;;;;;;1.08;1.05;;;;;;;;;;6190137;23;20230;-85
2023/07/05 14:11:46;;;;;;;1.83;1.63;;;;;;;;;;6189147;23;20654;-85
2023/07/05 14:14:15;;;;;;;1.42;1.30;;;;;;;;;;6190329;23;20189;-87
2023/07/05 14:16:43;;;;;;;1.20;1.10;;;;;;;;;;6189318;23;20182;-87
2023/07/05 14:19:10;;;;;;;3.10;1.73;;;;;;;;;;6189038;23;20229;-88
2023/07/05 14:21:39;;;;;;;2.17;1.40;;;;;;;;;;6187776;23;20557;-90
2023/07/05 14:24:12;;;;;;;1.70;1.58;;;;;;;;;;6188092;23;20185;-87
2023/07/05 14:26:39;;;;;;;1.70;1.60;;;;;;;;;;6189924;23;20194;-87
2023/07/05 14:29:07;;;;;;;2.35;2.00;;;;;;;;;;6188354;23;20179;-85
2023/07/05 14:31:35;;;;;;;1.58;1.48;;;;;;;;;;6188551;23;20202;-87
2023/07/05 14:34:02;;;;;;;1.85;1.75;;;;;;;;;;6187927;23;20210;-86
2023/07/05 14:36:30;;;;;;;1.90;1.52;;;;;;;;;;6188124;23;20206;-85
2023/07/05 14:38:57;;;;;;;1.83;1.73;;;;;;;;;;6189065;23;20184;-85
2023/07/05 14:41:27;;;;;;;1.92;1.83;;;;;;;;;;6190470;23;20588;-85
2023/07/05 14:43:56;;;;;;;1.63;1.45;;;;;;;;;;6190153;23;20253;-85
2023/07/05 14:46:24;;;;;;;2.20;1.85;;;;;;;;;;6188865;23;20254;-87
2023/07/05 14:48:52;;;;;;;2.85;2.30;;;;;;;;;;6189905;23;20205;-84
2023/07/05 14:51:24;;;;;;;1.98;1.77;;;;;;;;;;6188114;23;20594;-89
2023/07/05 14:53:51;;;;;;;2.28;1.70;;;;;;;;;;6186152;23;20194;-89
2023/07/05 14:56:19;;;;;;;2.53;2.08;;;;;;;;;;6186314;23;20268;-89
2023/07/05 14:58:49;;;;;;;3.45;2.00;;;;;;;;;;6187200;23;20206;-88
2023/07/05 15:01:18;;;;;;;2.25;1.70;;;;;;;;;;6187215;23;20230;-88
2023/07/05 15:03:46;;;;;;;3.03;1.88;;;;;;;;;;6186640;23;20237;-88
2023/07/05 15:06:17;;;;;;;1.88;1.70;;;;;;;;;;6187180;23;20167;-88